Time;durP1;ratioP1;P1;durP2;ratioP2;P2;SDS_P1;SDS_P2;PMS_P1;PMS_P2;Temp;Humidity;BMP_temperature;BMP_pressure;BME280_temperature;BME280_humidity;BME280_pressure;Samples;Min_cycle;Max_cycle;Signal;HPM_P1;HPM_P2
2021/06/03 00:02:06;;;;;;;1999.90;999.90;;;22.90;99.90;;;;;;5072765;28;20503;-87
2021/06/03 00:07:03;;;;;;;1999.90;999.90;;;23.00;99.90;;;;;;5058171;28;20452;-83
2021/06/03 00:09:30;;;;;;;1999.90;999.90;;;22.90;99.90;;;;;;5058771;28;20419;-82
2021/06/03 00:11:56;;;;;;;1999.90;999.90;;;23.00;99.90;;;;;;5058588;28;20395;-82
2021/06/03 00:14:22;;;;;;;1999.90;999.90;;;22.90;99.90;;;;;;5059056;28;20404;-83
2021/06/03 00:16:48;;;;;;;1999.90;999.90;;;22.80;99.90;;;;;;5059049;28;20453;-83
2021/06/03 00:19:14;;;;;;;1999.90;999.90;;;22.70;99.90;;;;;;5059035;28;20786;-83
2021/06/03 00:21:42;;;;;;;1999.90;999.90;;;22.60;99.90;;;;;;5058348;28;20496;-82
2021/06/03 00:24:08;;;;;;;1999.90;999.90;;;22.60;99.90;;;;;;5057193;28;20767;-82
2021/06/03 00:26:35;;;;;;;1999.90;999.90;;;22.60;99.90;;;;;;5058978;28;20395;-83
2021/06/03 00:29:09;;;;;;;1999.90;999.90;;;22.40;99.90;;;;;;5058152;28;20792;-82
2021/06/03 00:31:35;;;;;;;1999.90;999.90;;;22.30;99.90;;;;;;5058749;28;20384;-82
2021/06/03 00:34:01;;;;;;;1999.90;999.90;;;22.40;99.90;;;;;;5056789;28;20414;-82
2021/06/03 00:36:27;;;;;;;1999.90;999.90;;;22.50;99.90;;;;;;5058199;28;20411;-82
2021/06/03 00:38:52;;;;;;;1999.90;999.90;;;22.50;99.90;;;;;;5057001;28;20189;-83
2021/06/03 00:41:19;;;;;;;1999.90;999.90;;;22.50;99.90;;;;;;5058120;28;20627;-82
2021/06/03 00:43:45;;;;;;;1999.90;999.90;;;22.30;99.90;;;;;;5057584;28;20256;-82
2021/06/03 00:46:11;;;;;;;1999.90;999.90;;;22.30;99.90;;;;;;5040627;28;20399;-82
2021/06/03 00:48:38;;;;;;;1999.90;999.90;;;22.30;99.90;;;;;;5056527;28;20435;-82
2021/06/03 00:51:07;;;;;;;1999.90;999.90;;;22.30;99.90;;;;;;5058320;28;20399;-83
2021/06/03 00:53:37;;;;;;;1999.90;999.90;;;22.20;99.90;;;;;;5057990;28;20435;-82
2021/06/03 00:56:04;;;;;;;1999.90;999.90;;;22.10;99.90;;;;;;5058561;28;20391;-82
2021/06/03 00:58:31;;;;;;;1999.90;999.90;;;22.10;99.90;;;;;;5056607;28;20435;-82
2021/06/03 01:00:57;;;;;;;1999.90;999.90;;;21.80;99.90;;;;;;5057790;28;20862;-82
2021/06/03 01:03:25;;;;;;;1999.90;999.90;;;21.90;99.90;;;;;;5056500;28;20411;-82
2021/06/03 01:05:58;;;;;;;1999.90;999.90;;;21.80;99.90;;;;;;5056256;28;20450;-82
2021/06/03 01:08:45;;;;;;;1999.90;999.90;;;21.70;99.90;;;;;;5057072;28;20836;-82
2021/06/03 01:11:43;;;;;;;1999.90;999.90;;;21.70;99.90;;;;;;5057950;28;20387;-82
2021/06/03 01:14:19;;;;;;;1999.90;999.90;;;21.80;99.90;;;;;;5057181;28;20426;-82
2021/06/03 01:16:46;;;;;;;1999.90;999.90;;;21.50;99.90;;;;;;5058073;28;20725;-82
2021/06/03 01:19:14;;;;;;;1999.90;999.90;;;21.30;99.90;;;;;;5058318;28;20903;-82
2021/06/03 01:22:01;;;;;;;1999.90;999.90;;;21.30;99.90;;;;;;5056183;28;20443;-82
2021/06/03 01:24:29;;;;;;;1999.90;999.90;;;21.30;99.90;;;;;;5057085;28;20407;-82
2021/06/03 01:26:59;;;;;;;1999.90;999.90;;;21.20;99.90;;;;;;5056611;28;20411;-82
2021/06/03 01:29:26;;;;;;;1999.90;999.90;;;21.10;99.90;;;;;;5057781;28;20482;-82
2021/06/03 01:31:57;;;;;;;1999.90;999.90;;;21.10;99.90;;;;;;5056708;28;20411;-82
2021/06/03 01:34:26;;;;;;;1999.90;999.90;;;21.10;99.90;;;;;;5057674;28;20388;-82
2021/06/03 01:36:52;;;;;;;1999.90;999.90;;;21.20;99.90;;;;;;5056590;28;20805;-82
2021/06/03 01:39:19;;;;;;;1999.90;999.90;;;21.20;99.90;;;;;;5057534;28;20427;-82
2021/06/03 01:41:46;;;;;;;1999.90;999.90;;;21.10;99.90;;;;;;5057806;28;20441;-82
2021/06/03 01:44:12;;;;;;;1999.90;999.90;;;21.10;99.90;;;;;;5057270;28;20407;-82
2021/06/03 01:46:38;;;;;;;1999.90;999.90;;;21.10;99.90;;;;;;5059711;28;20405;-82
2021/06/03 01:49:05;;;;;;;1999.90;999.90;;;21.00;99.90;;;;;;5061430;28;20422;-82
2021/06/03 01:51:31;;;;;;;1999.90;999.90;;;21.00;99.90;;;;;;5059941;28;20403;-82
2021/06/03 01:53:57;;;;;;;1999.90;999.90;;;21.00;99.90;;;;;;5059527;28;20933;-82
2021/06/03 01:56:24;;;;;;;1999.90;999.90;;;21.00;99.90;;;;;;5061057;28;20403;-82
2021/06/03 01:58:50;;;;;;;1999.90;999.90;;;20.90;99.90;;;;;;5061674;28;20962;-82
2021/06/03 02:01:19;;;;;;;1999.90;999.90;;;20.80;99.90;;;;;;5061239;28;20438;-82
2021/06/03 02:03:45;;;;;;;1999.90;999.90;;;20.80;99.90;;;;;;5060818;28;20404;-82
2021/06/03 02:06:11;;;;;;;1999.90;999.90;;;20.80;99.90;;;;;;5059807;28;20427;-82
2021/06/03 02:08:37;;;;;;;1999.90;999.90;;;20.80;99.90;;;;;;5042872;28;20472;-82
2021/06/03 02:11:04;;;;;;;1999.90;999.90;;;20.80;99.90;;;;;;5059453;28;20837;-82
2021/06/03 02:13:46;;;;;;;1999.90;999.90;;;20.70;99.90;;;;;;5061209;28;20411;-82
2021/06/03 02:16:24;;;;;;;1999.90;999.90;;;20.60;99.90;;;;;;5061125;28;20387;-82
2021/06/03 02:19:13;;;;;;;1999.90;999.90;;;20.50;99.90;;;;;;5061474;28;20415;-82
2021/06/03 02:21:42;;;;;;;1999.90;999.90;;;20.50;99.90;;;;;;5061291;28;20427;-83
2021/06/03 02:24:11;;;;;;;1999.90;999.90;;;20.50;99.90;;;;;;5060860;28;20415;-82
2021/06/03 02:26:39;;;;;;;1999.90;999.90;;;20.50;99.90;;;;;;5059501;28;20498;-82
2021/06/03 02:29:05;;;;;;;1999.90;999.90;;;20.50;99.90;;;;;;5060397;28;20837;-82
2021/06/03 02:31:36;;;;;;;1999.90;999.90;;;20.50;99.90;;;;;;5059331;28;20415;-82
2021/06/03 02:34:02;;;;;;;1999.90;999.90;;;20.40;99.90;;;;;;5060855;28;20161;-82
2021/06/03 02:36:28;;;;;;;1999.90;999.90;;;20.30;99.90;;;;;;5060355;28;20435;-82
2021/06/03 02:38:54;;;;;;;1999.90;999.90;;;20.30;99.90;;;;;;5059497;28;20822;-82
2021/06/03 02:41:20;;;;;;;1999.90;999.90;;;20.20;99.90;;;;;;5059648;28;20471;-82
2021/06/03 02:43:50;;;;;;;1999.90;999.90;;;20.20;99.90;;;;;;5059050;28;20648;-82
2021/06/03 02:46:20;;;;;;;1999.90;999.90;;;20.20;99.90;;;;;;5060644;28;20145;-83
2021/06/03 02:48:45;;;;;;;1999.90;999.90;;;20.10;99.90;;;;;;5059165;28;20781;-82
2021/06/03 02:51:11;;;;;;;1999.90;999.90;;;20.10;99.90;;;;;;5059724;28;20408;-82
2021/06/03 02:53:38;;;;;;;1999.90;999.90;;;20.10;99.90;;;;;;5059998;28;20220;-82
2021/06/03 02:56:05;;;;;;;1999.90;999.90;;;20.10;99.90;;;;;;5058270;28;20460;-82
2021/06/03 02:58:31;;;;;;;1999.90;999.90;;;20.10;99.90;;;;;;5059624;28;20423;-82
2021/06/03 03:00:57;;;;;;;1999.90;999.90;;;20.10;99.90;;;;;;5059188;28;20825;-83
2021/06/03 03:03:24;;;;;;;1999.90;999.90;;;20.00;99.90;;;;;;5058817;28;20428;-82
2021/06/03 03:05:50;;;;;;;1999.90;999.90;;;20.00;99.90;;;;;;5057880;28;20188;-82
2021/06/03 03:08:15;;;;;;;1999.90;999.90;;;20.00;99.90;;;;;;5058907;28;20436;-82
2021/06/03 03:10:45;;;;;;;1999.90;999.90;;;20.00;99.90;;;;;;5058542;28;20411;-82
2021/06/03 03:13:13;;;;;;;1999.90;999.90;;;20.10;99.90;;;;;;5057782;28;20179;-82
2021/06/03 03:15:39;;;;;;;1999.90;999.90;;;20.10;99.90;;;;;;5058946;28;20768;-82
2021/06/03 03:18:08;;;;;;;1999.90;999.90;;;20.00;99.90;;;;;;5059949;28;20433;-82
2021/06/03 03:20:34;;;;;;;1999.90;999.90;;;20.10;99.90;;;;;;5059646;28;20395;-82
2021/06/03 03:23:07;;;;;;;1999.90;999.90;;;20.10;99.90;;;;;;5058330;28;20472;-82
2021/06/03 03:25:40;;;;;;;1999.90;999.90;;;19.80;99.90;;;;;;5059678;28;20399;-82
2021/06/03 03:28:10;;;;;;;1999.90;999.90;;;19.80;99.90;;;;;;5059551;28;20416;-82
2021/06/03 03:30:42;;;;;;;1999.90;999.90;;;19.80;99.90;;;;;;5059800;28;20413;-83
2021/06/03 03:33:13;;;;;;;1999.90;999.90;;;19.70;99.90;;;;;;5058478;28;20432;-82
2021/06/03 03:35:43;;;;;;;1999.90;999.90;;;19.70;99.90;;;;;;5058426;28;20421;-82
2021/06/03 03:38:09;;;;;;;1999.90;999.90;;;19.70;99.90;;;;;;5058103;28;20487;-83
2021/06/03 03:40:37;;;;;;;1999.90;999.90;;;19.80;99.90;;;;;;5058401;28;20405;-83
2021/06/03 03:43:06;;;;;;;1999.90;999.90;;;19.80;99.90;;;;;;5059042;28;20966;-83
2021/06/03 03:45:34;;;;;;;1999.90;999.90;;;19.60;99.90;;;;;;5058403;28;20403;-83
2021/06/03 03:48:01;;;;;;;1999.90;999.90;;;19.60;99.90;;;;;;5060587;28;20975;-82
2021/06/03 03:50:27;;;;;;;1999.90;999.90;;;19.50;99.90;;;;;;5057912;28;20403;-83
2021/06/03 03:52:59;;;;;;;1999.90;999.90;;;19.60;99.90;;;;;;5058070;28;20438;-82
2021/06/03 03:55:25;;;;;;;1999.90;999.90;;;19.50;99.90;;;;;;5059547;28;20429;-83
2021/06/03 03:57:55;;;;;;;1999.90;999.90;;;19.50;99.90;;;;;;5057905;28;20410;-82
2021/06/03 04:00:24;;;;;;;1999.90;999.90;;;19.60;99.90;;;;;;5057449;28;20407;-83
2021/06/03 04:02:50;;;;;;;1999.90;999.90;;;19.50;99.90;;;;;;5057618;28;20457;-83
2021/06/03 04:05:18;;;;;;;1999.90;999.90;;;19.50;99.90;;;;;;5059102;28;20421;-83
2021/06/03 04:07:45;;;;;;;1999.90;999.90;;;19.50;99.90;;;;;;5056739;28;20407;-83
2021/06/03 04:10:14;;;;;;;1999.90;999.90;;;19.50;99.90;;;;;;5057807;28;20941;-82
2021/06/03 04:12:40;;;;;;;1999.90;999.90;;;19.60;99.90;;;;;;5058715;28;20400;-82
2021/06/03 04:15:10;;;;;;;1999.90;999.90;;;19.70;99.90;;;;;;5057801;28;20490;-82
2021/06/03 04:17:36;;;;;;;1999.90;999.90;;;19.70;99.90;;;;;;5058499;28;20387;-82
2021/06/03 04:20:04;;;;;;;1999.90;999.90;;;19.60;99.90;;;;;;5059006;28;20490;-82
2021/06/03 04:22:36;;;;;;;1999.90;999.90;;;19.60;99.90;;;;;;5058683;28;20444;-82
2021/06/03 04:25:04;;;;;;;1999.90;999.90;;;19.50;99.90;;;;;;5057149;28;20403;-82
2021/06/03 04:27:30;;;;;;;1999.90;999.90;;;19.60;99.90;;;;;;5056884;28;20464;-82
2021/06/03 04:29:55;;;;;;;1999.90;999.90;;;19.50;99.90;;;;;;5057747;28;20797;-82
2021/06/03 04:32:21;;;;;;;1999.90;999.90;;;19.60;99.90;;;;;;5056924;28;20186;-82
2021/06/03 04:34:47;;;;;;;1999.90;999.90;;;19.60;99.90;;;;;;5059063;28;20255;-82
2021/06/03 04:37:13;;;;;;;1999.90;999.90;;;19.70;99.90;;;;;;5057760;28;20605;-82
2021/06/03 04:39:38;;;;;;;1999.90;999.90;;;19.90;99.90;;;;;;5056687;28;20199;-82
2021/06/03 04:42:06;;;;;;;1999.90;999.90;;;20.10;99.90;;;;;;5058029;28;20189;-83
2021/06/03 04:44:32;;;;;;;1999.90;999.90;;;20.30;99.90;;;;;;5058290;28;20156;-82
2021/06/03 04:46:58;;;;;;;1999.90;999.90;;;20.40;99.90;;;;;;5057078;28;20917;-83
2021/06/03 04:49:23;;;;;;;1999.90;999.90;;;20.30;99.90;;;;;;5056936;28;20431;-82
2021/06/03 04:51:49;;;;;;;1999.90;999.90;;;20.30;99.90;;;;;;5058021;28;20243;-82
2021/06/03 04:54:18;;;;;;;1999.90;999.90;;;20.30;99.90;;;;;;5057255;28;20171;-82
2021/06/03 04:56:46;;;;;;;1999.90;999.90;;;20.30;99.90;;;;;;5056446;28;20410;-82
2021/06/03 04:59:12;;;;;;;1999.90;999.90;;;20.30;99.90;;;;;;5058234;28;20508;-83
2021/06/03 05:01:39;;;;;;;1999.90;999.90;;;20.50;99.90;;;;;;5056487;28;20513;-83
2021/06/03 05:04:07;;;;;;;1999.90;999.90;;;20.70;99.90;;;;;;5056952;28;20163;-82
2021/06/03 05:06:36;;;;;;;1999.90;999.90;;;20.90;99.90;;;;;;5057672;28;20421;-82
2021/06/03 05:09:02;;;;;;;1999.90;999.90;;;20.90;99.90;;;;;;5056913;28;20438;-82
2021/06/03 05:11:30;;;;;;;1999.90;999.90;;;20.90;99.90;;;;;;5040447;28;20492;-83
2021/06/03 05:13:56;;;;;;;1999.90;999.90;;;20.80;99.90;;;;;;5057024;28;20778;-82
2021/06/03 05:16:22;;;;;;;1999.90;999.90;;;20.90;99.90;;;;;;5057733;28;20487;-82
2021/06/03 05:18:47;;;;;;;1999.90;999.90;;;20.90;99.90;;;;;;5058146;28;20184;-82
2021/06/03 05:21:16;;;;;;;1999.90;999.90;;;20.90;99.90;;;;;;5059274;28;20212;-82
2021/06/03 05:23:41;;;;;;;1999.90;999.90;;;20.80;99.90;;;;;;5059758;28;20165;-82
2021/06/03 05:26:07;;;;;;;1999.90;999.90;;;20.80;99.90;;;;;;5059472;28;20410;-82
2021/06/03 05:28:33;;;;;;;1999.90;999.90;;;20.80;99.90;;;;;;5059262;28;20271;-82
2021/06/03 05:30:59;;;;;;;1999.90;999.90;;;20.70;99.90;;;;;;5059800;28;20160;-82
2021/06/03 05:33:25;;;;;;;1999.90;999.90;;;20.70;99.90;;;;;;5060417;28;20156;-82
2021/06/03 05:35:50;;;;;;;1999.90;999.90;;;20.80;99.90;;;;;;5060928;28;20195;-82
2021/06/03 05:38:16;;;;;;;1999.90;999.90;;;20.70;1.00;;;;;;5059452;28;20447;-82
2021/06/03 05:40:44;;;;;;;1999.90;999.90;;;20.70;1.00;;;;;;5060947;28;20624;-82
2021/06/03 05:43:13;;;;;;;1999.90;999.90;;;20.60;99.90;;;;;;5060328;28;20606;-82
2021/06/03 05:45:40;;;;;;;1999.90;999.90;;;20.60;99.90;;;;;;5059045;28;20410;-82
2021/06/03 05:48:06;;;;;;;1999.90;999.90;;;20.70;99.90;;;;;;5060481;28;20791;-82
2021/06/03 05:50:35;;;;;;;1999.90;999.90;;;20.60;1.00;;;;;;5059296;28;20410;-82
2021/06/03 05:53:04;;;;;;;1999.90;999.90;;;20.70;99.90;;;;;;5059983;28;20403;-82
2021/06/03 05:55:29;;;;;;;1999.90;999.90;;;20.70;99.90;;;;;;5061064;28;20395;-82
2021/06/03 05:57:55;;;;;;;1999.90;999.90;;;20.90;99.90;;;;;;5058806;28;20414;-82
2021/06/03 06:00:25;;;;;;;1999.90;999.90;;;21.00;99.90;;;;;;5060347;28;20343;-81
2021/06/03 06:08:07;;;;;;;1999.90;999.90;;;21.30;1.00;;;;;;5081266;28;20456;-80
2021/06/03 06:10:34;;;;;;;1999.90;999.90;;;21.30;1.00;;;;;;5080886;28;20747;-80
2021/06/03 06:13:00;;;;;;;1999.90;999.90;;;21.30;99.90;;;;;;5080673;28;20889;-80
2021/06/03 06:15:26;;;;;;;1999.90;999.90;;;21.30;99.90;;;;;;5080926;28;20452;-81
2021/06/03 06:17:53;;;;;;;1999.90;999.90;;;21.50;99.90;;;;;;5080846;28;20773;-81
2021/06/03 06:20:19;;;;;;;1999.90;999.90;;;21.50;99.90;;;;;;5079801;28;20422;-81
2021/06/03 06:22:45;;;;;;;1999.90;999.90;;;21.50;1.00;;;;;;5081188;28;20521;-81
2021/06/03 06:25:11;;;;;;;1999.90;999.90;;;21.60;1.00;;;;;;5079667;28;20437;-81
2021/06/03 06:27:37;;;;;;;1999.90;999.90;;;21.50;1.00;;;;;;5079866;28;20486;-79
2021/06/03 06:30:08;;;;;;;1999.90;999.90;;;21.50;1.00;;;;;;5079228;28;20536;-80
2021/06/03 06:32:34;;;;;;;1999.90;999.90;;;21.40;43.10;;;;;;5079861;28;20410;-80
2021/06/03 06:34:59;;;;;;;1999.90;999.90;;;21.40;54.30;;;;;;5080465;28;20769;-80
2021/06/03 06:37:25;;;;;;;1999.90;999.90;;;21.40;99.90;;;;;;5080506;28;20203;-80
2021/06/03 06:39:51;;;;;;;1999.90;999.90;;;21.30;99.90;;;;;;5078835;28;20187;-81
2021/06/03 06:42:16;;;;;;;1999.90;999.90;;;21.30;1.00;;;;;;5080210;28;20188;-81
2021/06/03 06:44:42;;;;;;;1999.90;999.90;;;21.30;1.00;;;;;;5080081;28;20637;-80
2021/06/03 06:47:08;;;;;;;1999.90;999.90;;;21.30;1.00;;;;;;5078479;28;20205;-80
2021/06/03 06:49:34;;;;;;;1999.90;999.90;;;21.20;1.00;;;;;;5077750;28;20188;-80
2021/06/03 06:52:00;;;;;;;1999.90;999.90;;;21.20;16.30;;;;;;5079125;28;20203;-80
2021/06/03 06:54:26;;;;;;;1999.90;999.90;;;21.10;69.10;;;;;;5078859;28;20882;-80
2021/06/03 06:56:51;;;;;;;1999.90;999.90;;;21.10;79.10;;;;;;5078584;28;20168;-80
2021/06/03 06:59:20;;;;;;;1999.90;999.90;;;21.10;92.10;;;;;;5078471;28;20614;-80
2021/06/03 07:01:45;;;;;;;1999.90;999.90;;;21.10;94.30;;;;;;5078566;28;20524;-80
2021/06/03 07:04:17;;;;;;;1999.90;999.90;;;21.00;94.00;;;;;;5078554;28;20936;-80
2021/06/03 07:06:43;;;;;;;1999.90;999.90;;;20.90;99.90;;;;;;5079111;28;20554;-81
2021/06/03 07:09:09;;;;;;;1999.90;999.90;;;20.80;99.90;;;;;;5078711;28;20513;-81
2021/06/03 07:11:43;;;;;;;1999.90;999.90;;;20.80;99.90;;;;;;5079490;28;20164;-81
2021/06/03 07:14:09;;;;;;;1999.90;999.90;;;20.80;99.90;;;;;;5078557;28;20413;-81
2021/06/03 07:16:34;;;;;;;1999.90;999.90;;;20.90;99.90;;;;;;5079626;28;20478;-81
2021/06/03 07:19:00;;;;;;;1999.90;999.90;;;21.00;99.90;;;;;;5079993;28;20188;-81
2021/06/03 07:21:26;;;;;;;1999.90;999.90;;;20.90;99.90;;;;;;5078425;28;20253;-81
2021/06/03 07:23:51;;;;;;;1999.90;999.90;;;20.90;99.90;;;;;;5080319;28;20164;-81
2021/06/03 07:26:24;;;;;;;1999.90;999.90;;;21.20;99.90;;;;;;5080960;28;20187;-81
2021/06/03 07:28:51;;;;;;;1999.90;999.90;;;21.30;99.90;;;;;;5080147;28;20426;-81
2021/06/03 07:31:17;;;;;;;1999.90;999.90;;;21.50;99.90;;;;;;5081514;28;20925;-81
2021/06/03 07:33:46;;;;;;;1999.90;999.90;;;21.70;99.90;;;;;;5078905;28;20501;-81
2021/06/03 07:36:14;;;;;;;1999.90;999.90;;;21.80;99.90;;;;;;5080487;28;20164;-81
2021/06/03 07:38:40;;;;;;;1999.90;999.90;;;21.90;99.90;;;;;;5080396;28;20433;-81
2021/06/03 07:41:08;;;;;;;1999.90;999.90;;;22.00;99.90;;;;;;5080695;28;20402;-81
2021/06/03 07:43:34;;;;;;;1999.90;999.90;;;22.10;99.90;;;;;;5079216;28;20167;-81
2021/06/03 07:46:00;;;;;;;1999.90;999.90;;;22.10;99.90;;;;;;5077785;28;20438;-80
2021/06/03 07:48:25;;;;;;;1999.90;999.90;;;22.10;99.90;;;;;;5078045;28;20429;-81
2021/06/03 07:50:51;;;;;;;1999.90;999.90;;;22.00;99.90;;;;;;5078427;28;20190;-83
2021/06/03 07:53:17;;;;;;;1999.90;999.90;;;21.90;99.90;;;;;;5078605;28;20283;-82
2021/06/03 07:55:43;;;;;;;1999.90;999.90;;;21.50;99.90;;;;;;5078319;28;20163;-82
2021/06/03 07:58:11;;;;;;;1999.90;999.90;;;21.40;99.90;;;;;;5076500;28;20192;-82
2021/06/03 08:00:40;;;;;;;1999.90;999.90;;;21.30;99.90;;;;;;5078011;28;20398;-82
2021/06/03 08:03:06;;;;;;;1999.90;999.90;;;21.20;99.90;;;;;;5078584;28;20847;-82
2021/06/03 08:05:32;;;;;;;1999.90;999.90;;;21.30;99.90;;;;;;5076425;28;20481;-82
2021/06/03 08:07:58;;;;;;;1999.90;999.90;;;21.50;99.90;;;;;;5078483;28;20955;-82
2021/06/03 08:10:32;;;;;;;1999.90;999.90;;;21.40;99.90;;;;;;5077758;28;20414;-82
2021/06/03 08:13:05;;;;;;;1999.90;999.90;;;21.60;99.90;;;;;;5079665;28;20152;-82
2021/06/03 08:15:31;;;;;;;1999.90;999.90;;;21.70;99.90;;;;;;5081530;28;20379;-81
2021/06/03 08:17:58;;;;;;;1999.90;999.90;;;21.80;99.90;;;;;;5079870;28;20414;-82
2021/06/03 08:20:30;;;;;;;1999.90;999.90;;;21.90;99.90;;;;;;5079175;28;20481;-82
2021/06/03 08:22:57;;;;;;;1999.90;999.90;;;22.00;99.90;;;;;;5079638;28;20445;-82
2021/06/03 08:25:25;;;;;;;1999.90;999.90;;;22.10;99.90;;;;;;5077815;28;20774;-82
2021/06/03 08:27:52;;;;;;;1999.90;999.90;;;22.10;99.90;;;;;;5077402;28;20493;-82
2021/06/03 08:30:47;;;;;;;1999.90;999.90;;;22.20;99.90;;;;;;5078612;28;20395;-82
2021/06/03 08:33:33;;;;;;;1999.90;999.90;;;22.20;99.90;;;;;;5051416;28;20982;-82
2021/06/03 08:36:45;;;;;;;1999.90;999.90;;;22.20;99.90;;;;;;5055619;28;20444;-81
2021/06/03 08:40:05;;;;;;;1999.90;999.90;;;22.20;99.90;;;;;;5075954;28;20426;-82
2021/06/03 08:49:40;;;;;;;1999.90;999.90;;;22.10;99.90;;;;;;4965700;28;20567;-82
2021/06/03 08:52:49;;;;;;;1999.90;999.90;;;22.00;99.90;;;;;;4980779;28;20445;-82
2021/06/03 09:00:07;;;;;;;1999.90;999.90;;;21.80;99.90;;;;;;4939734;29;20512;-83
2021/06/03 09:03:37;;;;;;;;;;;;;;;;;;;;;
2021/06/03 09:07:23;;;;;;;;;;;;;;;;;;;;;
2021/06/03 09:14:28;;;;;;;1999.90;999.90;;;21.40;99.90;;;;;;4808726;29;20571;-82
2021/06/03 09:41:10;;;;;;;;;;;;;;;;;;;;;
2021/06/03 09:48:10;;;;;;;1999.90;999.90;;;22.20;99.90;;;;;;4938079;29;20520;-82
2021/06/03 09:51:17;;;;;;;;;;;;;;;;;;;;;
2021/06/03 09:54:39;;;;;;;1999.90;999.90;;;22.90;99.90;;;;;;4989439;28;21016;-82
2021/06/03 09:57:48;;;;;;;1999.90;999.90;;;23.20;99.90;;;;;;4996409;28;20496;-82
2021/06/03 10:04:16;;;;;;;1999.90;999.90;;;23.40;99.90;;;;;;4997766;28;20820;-82
2021/06/03 10:08:27;;;;;;;;;;;;;;;;;;;;;
2021/06/03 10:10:55;;;;;;;1999.90;999.90;;;23.00;99.90;;;;;;5060985;28;20418;-82
2021/06/03 10:13:20;;;;;;;1999.90;999.90;;;23.00;99.90;;;;;;5059804;28;20418;-82
2021/06/03 10:15:49;;;;;;;1999.90;999.90;;;23.10;99.90;;;;;;5060232;28;20419;-82
2021/06/03 10:19:14;;;;;;;;;;;;;;;;;;;;;
2021/06/03 10:22:37;;;;;;;;;;;;;;;;;;;;;
2021/06/03 10:32:22;;;;;;;1999.90;999.90;;;22.40;99.90;;;;;;5082804;22;20474;-82
2021/06/03 10:35:38;;;;;;;;;;;;;;;;;;;;;
2021/06/03 10:38:24;;;;;;;1999.90;999.90;;;22.60;99.90;;;;;;5023091;28;20517;-82
2021/06/03 10:41:13;;;;;;;;;;;;;;;;;;;;;
2021/06/03 10:43:51;;;;;;;1999.90;999.90;;;22.80;99.90;;;;;;5022571;28;20480;-81
2021/06/03 10:46:28;;;;;;;1999.90;999.90;;;23.00;99.90;;;;;;5054938;28;20399;-82
2021/06/03 10:49:12;;;;;;;1999.90;999.90;;;22.90;99.90;;;;;;5064008;28;20474;-82
2021/06/03 10:51:44;;;;;;;1999.90;999.90;;;22.90;99.90;;;;;;5062772;28;20414;-81
2021/06/03 10:54:19;;;;;;;1999.90;999.90;;;23.00;99.90;;;;;;5063014;28;20748;-82
2021/06/03 10:57:00;;;;;;;1999.90;999.90;;;23.00;99.90;;;;;;5062334;28;20394;-81
2021/06/03 10:59:33;;;;;;;1999.90;999.90;;;23.10;99.90;;;;;;5062721;28;20426;-82
2021/06/03 11:02:01;;;;;;;1999.90;999.90;;;23.10;99.90;;;;;;5060721;28;20448;-82
2021/06/03 11:04:30;;;;;;;1999.90;999.90;;;23.20;99.90;;;;;;5060848;28;20407;-82
2021/06/03 11:07:03;;;;;;;1999.90;999.90;;;23.20;99.90;;;;;;5061587;28;20418;-81
2021/06/03 11:09:43;;;;;;;1999.90;999.90;;;23.30;99.90;;;;;;5060395;28;20441;-82
2021/06/03 11:12:16;;;;;;;1999.90;999.90;;;23.40;99.90;;;;;;5061901;28;20747;-82
2021/06/03 11:15:11;;;;;;;1999.90;999.90;;;23.40;99.90;;;;;;5060543;28;20898;-82
2021/06/03 11:18:03;;;;;;;1999.90;999.90;;;23.50;99.90;;;;;;5060874;28;20453;-82
2021/06/03 11:20:42;;;;;;;1999.90;999.90;;;23.40;99.90;;;;;;5060027;28;20400;-81
2021/06/03 11:23:44;;;;;;;1999.90;999.90;;;23.40;99.90;;;;;;5060159;28;20481;-82
2021/06/03 11:26:29;;;;;;;1999.90;999.90;;;23.50;99.90;;;;;;4999319;28;20413;-81
2021/06/03 11:29:26;;;;;;;1999.90;999.90;;;23.50;99.90;;;;;;5057325;28;20940;-82
2021/06/03 11:32:04;;;;;;;1999.90;999.90;;;23.40;99.90;;;;;;5061806;28;20438;-82
2021/06/03 11:34:41;;;;;;;1999.90;999.90;;;23.50;99.90;;;;;;5060017;28;20388;-81
2021/06/03 11:37:14;;;;;;;1999.90;999.90;;;23.40;99.90;;;;;;5060291;28;20399;-81
2021/06/03 11:39:46;;;;;;;1999.90;999.90;;;23.40;99.90;;;;;;5059852;28;20427;-80
2021/06/03 11:42:17;;;;;;;1999.90;999.90;;;23.50;99.90;;;;;;5059842;28;20439;-81
2021/06/03 11:45:08;;;;;;;1999.90;999.90;;;23.70;99.90;;;;;;5059573;28;20408;-81
2021/06/03 11:47:36;;;;;;;1999.90;999.90;;;23.80;99.90;;;;;;5059797;28;20378;-81
2021/06/03 11:50:26;;;;;;;1999.90;999.90;;;24.00;99.90;;;;;;5059736;28;20415;-81
2021/06/03 11:52:55;;;;;;;1999.90;999.90;;;24.20;99.90;;;;;;5059472;28;20411;-81
2021/06/03 11:55:35;;;;;;;1999.90;999.90;;;24.30;99.90;;;;;;5059766;28;20479;-81
2021/06/03 11:58:22;;;;;;;1999.90;999.90;;;24.50;99.90;;;;;;5059761;28;20428;-81
2021/06/03 12:00:55;;;;;;;1999.90;999.90;;;24.60;99.90;;;;;;5059081;28;20396;-82
2021/06/03 12:03:28;;;;;;;1999.90;999.90;;;24.70;99.90;;;;;;5059065;28;20795;-81
2021/06/03 12:06:14;;;;;;;1999.90;999.90;;;24.60;99.90;;;;;;5130597;22;20494;-82
2021/06/03 12:08:52;;;;;;;1999.90;999.90;;;24.70;99.90;;;;;;5039230;28;20488;-82
2021/06/03 12:11:33;;;;;;;1999.90;999.90;;;24.90;99.90;;;;;;5040519;28;20383;-82
2021/06/03 12:14:14;;;;;;;1999.90;999.90;;;25.30;99.90;;;;;;5039569;28;20410;-82
2021/06/03 12:16:46;;;;;;;1999.90;999.90;;;25.70;99.90;;;;;;5040424;28;20417;-83
2021/06/03 12:19:22;;;;;;;1999.90;999.90;;;25.90;99.90;;;;;;5040705;28;20447;-82
2021/06/03 12:22:09;;;;;;;1999.90;999.90;;;25.90;99.90;;;;;;5040739;28;20456;-82
2021/06/03 12:24:45;;;;;;;1999.90;999.90;;;25.90;99.90;;;;;;5040701;28;20384;-82
2021/06/03 12:27:28;;;;;;;1999.90;999.90;;;26.20;99.90;;;;;;5040677;28;20411;-82
2021/06/03 12:29:57;;;;;;;1999.90;999.90;;;26.50;99.90;;;;;;5040314;28;20415;-83
2021/06/03 12:32:26;;;;;;;1999.90;999.90;;;26.70;99.90;;;;;;5040579;28;20424;-83
2021/06/03 12:35:02;;;;;;;1999.90;999.90;;;26.80;99.90;;;;;;5039766;28;20432;-83
2021/06/03 12:37:31;;;;;;;1999.90;999.90;;;27.00;99.90;;;;;;5041547;28;20387;-83
2021/06/03 12:39:58;;;;;;;1999.90;999.90;;;27.00;99.90;;;;;;5041224;28;20424;-83
2021/06/03 12:42:28;;;;;;;1999.90;999.90;;;26.90;99.90;;;;;;5041877;28;20777;-83
2021/06/03 12:44:56;;;;;;;1999.90;999.90;;;26.90;99.90;;;;;;5039749;28;20427;-85
2021/06/03 12:47:24;;;;;;;1999.90;999.90;;;26.80;99.90;;;;;;5040514;28;20412;-82
2021/06/03 12:49:50;;;;;;;1999.90;999.90;;;26.60;99.90;;;;;;5039474;28;20443;-82
2021/06/03 12:52:18;;;;;;;1999.90;999.90;;;26.60;99.90;;;;;;5040973;28;20416;-82
2021/06/03 12:54:45;;;;;;;1999.90;999.90;;;26.40;99.90;;;;;;5041486;28;20171;-82
2021/06/03 12:57:13;;;;;;;1999.90;999.90;;;26.20;99.90;;;;;;5043287;28;20753;-83
2021/06/03 12:59:45;;;;;;;1999.90;999.90;;;26.00;99.90;;;;;;5040570;28;20432;-84
2021/06/03 13:02:21;;;;;;;1999.90;999.90;;;25.80;99.90;;;;;;5040932;28;20996;-83
2021/06/03 13:04:49;;;;;;;1999.90;999.90;;;25.80;99.90;;;;;;5042952;28;20434;-81
2021/06/03 13:07:28;;;;;;;1999.90;999.90;;;25.70;99.90;;;;;;5042858;28;20423;-81
2021/06/03 13:09:57;;;;;;;1999.90;999.90;;;25.80;99.90;;;;;;5042699;28;20497;-82
2021/06/03 13:12:45;;;;;;;1999.90;999.90;;;25.60;99.90;;;;;;5042656;28;20408;-82
2021/06/03 13:15:14;;;;;;;1999.90;999.90;;;25.70;99.90;;;;;;5040817;28;20415;-82
2021/06/03 13:17:53;;;;;;;1999.90;999.90;;;25.70;99.90;;;;;;5041244;28;20896;-80
2021/06/03 13:20:25;;;;;;;1999.90;999.90;;;25.70;99.90;;;;;;5042379;28;20388;-82
2021/06/03 13:22:58;;;;;;;1999.90;999.90;;;25.80;99.90;;;;;;5040859;28;20443;-82
2021/06/03 13:25:26;;;;;;;1999.90;999.90;;;26.00;99.90;;;;;;5039739;28;20412;-82
2021/06/03 13:27:55;;;;;;;1999.90;999.90;;;26.10;99.90;;;;;;5039375;28;20408;-82
2021/06/03 13:30:25;;;;;;;1999.90;999.90;;;26.10;99.90;;;;;;5041179;28;20412;-82
2021/06/03 13:33:13;;;;;;;1999.90;999.90;;;26.10;99.90;;;;;;5041060;28;20415;-82
2021/06/03 13:35:48;;;;;;;1999.90;999.90;;;26.00;99.90;;;;;;5039970;28;20439;-82
2021/06/03 13:38:15;;;;;;;1999.90;999.90;;;25.70;99.90;;;;;;5039541;28;20439;-81
2021/06/03 13:40:43;;;;;;;1999.90;999.90;;;25.90;99.90;;;;;;5040635;28;20404;-83